sensor_id;sensor_type;location;lat;lon;timestamp;pressure;altitude;pressure_sealevel;temperature;humidity
74708;BME280;63360;50.104;8.074;2022-09-27T00:00:40;95269.00;;;8.71;100.00
74708;BME280;63360;50.104;8.074;2022-09-27T00:03:10;95278.88;;;8.65;100.00
74708;BME280;63360;50.104;8.074;2022-09-27T00:05:37;95265.59;;;8.67;100.00
74708;BME280;63360;50.104;8.074;2022-09-27T00:08:03;95266.34;;;8.67;100.00
74708;BME280;63360;50.104;8.074;2022-09-27T00:10:30;95269.16;;;8.78;100.00
74708;BME280;63360;50.104;8.074;2022-09-27T00:12:57;95263.75;;;8.67;100.00
74708;BME280;63360;50.104;8.074;2022-09-27T00:15:24;95264.56;;;8.71;100.00
74708;BME280;63360;50.104;8.074;2022-09-27T00:17:50;95266.69;;;8.66;100.00
74708;BME280;63360;50.104;8.074;2022-09-27T00:20:18;95272.69;;;8.70;100.00
74708;BME280;63360;50.104;8.074;2022-09-27T00:22:47;95282.41;;;8.73;100.00
74708;BME280;63360;50.104;8.074;2022-09-27T00:25:14;95265.19;;;8.65;100.00
74708;BME280;63360;50.104;8.074;2022-09-27T00:27:41;95268.19;;;8.67;100.00
74708;BME280;63360;50.104;8.074;2022-09-27T00:30:08;95259.91;;;8.61;100.00
74708;BME280;63360;50.104;8.074;2022-09-27T00:32:35;95263.00;;;8.67;100.00
74708;BME280;63360;50.104;8.074;2022-09-27T00:35:01;95248.78;;;8.61;100.00
74708;BME280;63360;50.104;8.074;2022-09-27T00:37:28;95256.97;;;8.63;100.00
74708;BME280;63360;50.104;8.074;2022-09-27T00:39:54;95256.16;;;8.59;100.00
74708;BME280;63360;50.104;8.074;2022-09-27T00:42:20;95271.09;;;8.65;100.00
74708;BME280;63360;50.104;8.074;2022-09-27T00:45:00;95264.09;;;8.66;100.00
74708;BME280;63360;50.104;8.074;2022-09-27T00:47:40;95259.03;;;8.53;100.00
74708;BME280;63360;50.104;8.074;2022-09-27T00:50:27;95269.53;;;8.61;100.00
74708;BME280;63360;50.104;8.074;2022-09-27T00:55:28;95261.66;;;8.57;100.00
74708;BME280;63360;50.104;8.074;2022-09-27T00:57:56;95251.75;;;8.59;100.00
74708;BME280;63360;50.104;8.074;2022-09-27T01:00:23;95252.47;;;8.60;100.00
74708;BME280;63360;50.104;8.074;2022-09-27T01:02:52;95255.59;;;8.49;100.00
74708;BME280;63360;50.104;8.074;2022-09-27T01:05:21;95251.25;;;8.53;100.00
74708;BME280;63360;50.104;8.074;2022-09-27T01:07:49;95263.78;;;8.51;100.00
74708;BME280;63360;50.104;8.074;2022-09-27T01:10:17;95250.13;;;8.54;100.00
74708;BME280;63360;50.104;8.074;2022-09-27T01:23:48;95255.19;;;8.47;100.00
74708;BME280;63360;50.104;8.074;2022-09-27T01:32:19;95249.25;;;8.47;100.00
74708;BME280;63360;50.104;8.074;2022-09-27T01:35:18;95265.53;;;8.47;100.00
74708;BME280;63360;50.104;8.074;2022-09-27T01:40:23;95258.59;;;8.51;100.00
74708;BME280;63360;50.104;8.074;2022-09-27T01:43:08;95256.25;;;8.46;100.00
74708;BME280;63360;50.104;8.074;2022-09-27T01:45:39;95251.41;;;8.45;100.00
74708;BME280;63360;50.104;8.074;2022-09-27T01:48:22;95254.53;;;8.35;100.00
74708;BME280;63360;50.104;8.074;2022-09-27T01:53:53;95247.84;;;8.34;100.00
74708;BME280;63360;50.104;8.074;2022-09-27T01:56:23;95241.72;;;8.26;100.00
74708;BME280;63360;50.104;8.074;2022-09-27T01:58:56;95252.34;;;8.37;100.00
74708;BME280;63360;50.104;8.074;2022-09-27T02:01:25;95245.66;;;8.36;100.00
74708;BME280;63360;50.104;8.074;2022-09-27T02:03:55;95248.50;;;8.31;100.00
74708;BME280;63360;50.104;8.074;2022-09-27T02:06:31;95240.41;;;8.32;100.00
74708;BME280;63360;50.104;8.074;2022-09-27T02:09:06;95251.28;;;8.38;100.00
74708;BME280;63360;50.104;8.074;2022-09-27T02:11:37;95244.50;;;8.33;100.00
74708;BME280;63360;50.104;8.074;2022-09-27T02:14:18;95240.81;;;8.34;100.00
74708;BME280;63360;50.104;8.074;2022-09-27T02:16:59;95241.63;;;8.23;100.00
74708;BME280;63360;50.104;8.074;2022-09-27T02:19:40;95256.28;;;8.31;100.00
74708;BME280;63360;50.104;8.074;2022-09-27T02:24:57;95273.16;;;8.25;100.00
74708;BME280;63360;50.104;8.074;2022-09-27T02:27:29;95271.22;;;8.22;100.00
74708;BME280;63360;50.104;8.074;2022-09-27T02:30:06;95273.13;;;8.09;100.00
74708;BME280;63360;50.104;8.074;2022-09-27T02:32:34;95279.31;;;8.05;100.00
74708;BME280;63360;50.104;8.074;2022-09-27T02:35:16;95292.41;;;7.96;100.00
74708;BME280;63360;50.104;8.074;2022-09-27T02:37:44;95285.66;;;7.91;100.00
74708;BME280;63360;50.104;8.074;2022-09-27T02:40:11;95283.16;;;7.79;100.00
74708;BME280;63360;50.104;8.074;2022-09-27T02:42:40;95300.91;;;7.81;100.00
74708;BME280;63360;50.104;8.074;2022-09-27T02:45:09;95292.97;;;7.74;100.00
74708;BME280;63360;50.104;8.074;2022-09-27T02:50:55;95302.47;;;7.70;100.00
74708;BME280;63360;50.104;8.074;2022-09-27T02:56:44;95311.66;;;7.67;100.00
74708;BME280;63360;50.104;8.074;2022-09-27T03:05:17;95302.69;;;7.49;100.00
74708;BME280;63360;50.104;8.074;2022-09-27T03:07:47;95309.38;;;7.50;100.00
74708;BME280;63360;50.104;8.074;2022-09-27T03:10:19;95314.53;;;7.50;100.00
74708;BME280;63360;50.104;8.074;2022-09-27T03:12:46;95307.16;;;7.37;100.00
74708;BME280;63360;50.104;8.074;2022-09-27T03:15:13;95307.56;;;7.39;100.00
74708;BME280;63360;50.104;8.074;2022-09-27T03:17:39;95315.97;;;7.36;100.00
74708;BME280;63360;50.104;8.074;2022-09-27T03:20:06;95318.56;;;7.36;100.00
74708;BME280;63360;50.104;8.074;2022-09-27T03:22:34;95310.81;;;7.36;100.00
74708;BME280;63360;50.104;8.074;2022-09-27T03:25:00;95311.47;;;7.32;100.00
74708;BME280;63360;50.104;8.074;2022-09-27T03:27:27;95327.50;;;7.38;100.00
74708;BME280;63360;50.104;8.074;2022-09-27T03:29:53;95318.25;;;7.37;100.00
74708;BME280;63360;50.104;8.074;2022-09-27T03:32:20;95336.88;;;7.43;100.00
74708;BME280;63360;50.104;8.074;2022-09-27T03:34:46;95323.84;;;7.39;100.00
74708;BME280;63360;50.104;8.074;2022-09-27T03:37:12;95335.91;;;7.47;100.00
74708;BME280;63360;50.104;8.074;2022-09-27T03:39:39;95332.78;;;7.42;100.00
74708;BME280;63360;50.104;8.074;2022-09-27T03:42:05;95332.78;;;7.42;100.00
74708;BME280;63360;50.104;8.074;2022-09-27T03:44:32;95329.78;;;7.40;100.00
74708;BME280;63360;50.104;8.074;2022-09-27T03:46:58;95325.69;;;7.39;100.00
74708;BME280;63360;50.104;8.074;2022-09-27T03:49:25;95340.44;;;7.38;100.00
74708;BME280;63360;50.104;8.074;2022-09-27T03:51:51;95328.81;;;7.32;100.00
74708;BME280;63360;50.104;8.074;2022-09-27T03:54:18;95341.31;;;7.42;100.00
74708;BME280;63360;50.104;8.074;2022-09-27T03:56:44;95323.31;;;7.33;100.00
74708;BME280;63360;50.104;8.074;2022-09-27T03:59:11;95337.00;;;7.34;100.00
74708;BME280;63360;50.104;8.074;2022-09-27T04:01:37;95327.41;;;7.34;100.00
74708;BME280;63360;50.104;8.074;2022-09-27T04:04:04;95323.78;;;7.23;100.00
74708;BME280;63360;50.104;8.074;2022-09-27T04:06:36;95340.56;;;7.29;100.00
74708;BME280;63360;50.104;8.074;2022-09-27T04:09:03;95330.44;;;7.24;100.00
74708;BME280;63360;50.104;8.074;2022-09-27T04:11:29;95336.50;;;7.28;100.00
74708;BME280;63360;50.104;8.074;2022-09-27T04:13:56;95334.75;;;7.32;100.00
74708;BME280;63360;50.104;8.074;2022-09-27T04:16:22;95328.84;;;7.20;100.00
74708;BME280;63360;50.104;8.074;2022-09-27T04:18:50;95340.03;;;7.24;100.00
74708;BME280;63360;50.104;8.074;2022-09-27T04:21:16;95339.50;;;7.30;100.00
74708;BME280;63360;50.104;8.074;2022-09-27T04:23:43;95349.72;;;7.27;100.00
74708;BME280;63360;50.104;8.074;2022-09-27T04:26:09;95338.03;;;7.17;100.00
74708;BME280;63360;50.104;8.074;2022-09-27T04:28:36;95350.81;;;7.26;100.00
74708;BME280;63360;50.104;8.074;2022-09-27T04:31:02;95357.28;;;7.20;100.00
74708;BME280;63360;50.104;8.074;2022-09-27T04:33:29;95347.72;;;7.20;100.00
74708;BME280;63360;50.104;8.074;2022-09-27T04:35:55;95366.19;;;7.34;100.00
74708;BME280;63360;50.104;8.074;2022-09-27T04:38:40;95356.94;;;7.33;100.00
74708;BME280;63360;50.104;8.074;2022-09-27T04:41:06;95354.38;;;7.33;100.00
74708;BME280;63360;50.104;8.074;2022-09-27T04:43:33;95360.41;;;7.25;100.00
74708;BME280;63360;50.104;8.074;2022-09-27T04:45:59;95365.25;;;7.27;100.00
74708;BME280;63360;50.104;8.074;2022-09-27T04:48:26;95357.94;;;7.29;100.00
74708;BME280;63360;50.104;8.074;2022-09-27T04:50:57;95362.25;;;7.25;100.00
74708;BME280;63360;50.104;8.074;2022-09-27T04:53:24;95357.63;;;7.18;100.00
74708;BME280;63360;50.104;8.074;2022-09-27T04:55:52;95354.72;;;7.20;100.00
74708;BME280;63360;50.104;8.074;2022-09-27T04:58:19;95367.06;;;7.26;100.00
74708;BME280;63360;50.104;8.074;2022-09-27T05:00:45;95360.84;;;7.27;100.00
74708;BME280;63360;50.104;8.074;2022-09-27T05:03:12;95372.69;;;7.28;100.00
74708;BME280;63360;50.104;8.074;2022-09-27T05:05:40;95361.06;;;7.22;100.00
74708;BME280;63360;50.104;8.074;2022-09-27T05:08:06;95384.88;;;7.28;100.00
74708;BME280;63360;50.104;8.074;2022-09-27T05:10:33;95371.06;;;7.24;100.00
74708;BME280;63360;50.104;8.074;2022-09-27T05:12:59;95372.16;;;7.23;100.00
74708;BME280;63360;50.104;8.074;2022-09-27T05:15:25;95391.88;;;7.27;100.00
74708;BME280;63360;50.104;8.074;2022-09-27T05:17:52;95375.81;;;7.22;100.00
74708;BME280;63360;50.104;8.074;2022-09-27T05:20:19;95390.16;;;7.19;100.00
74708;BME280;63360;50.104;8.074;2022-09-27T05:22:45;95396.06;;;7.32;100.00
74708;BME280;63360;50.104;8.074;2022-09-27T05:25:12;95398.78;;;7.23;100.00
74708;BME280;63360;50.104;8.074;2022-09-27T05:27:38;95412.44;;;7.36;100.00
74708;BME280;63360;50.104;8.074;2022-09-27T05:30:05;95414.59;;;7.34;100.00
74708;BME280;63360;50.104;8.074;2022-09-27T05:32:34;95409.31;;;7.30;100.00
74708;BME280;63360;50.104;8.074;2022-09-27T05:35:00;95416.31;;;7.30;100.00
74708;BME280;63360;50.104;8.074;2022-09-27T05:37:27;95409.13;;;7.23;100.00
74708;BME280;63360;50.104;8.074;2022-09-27T05:39:55;95408.25;;;7.19;100.00
74708;BME280;63360;50.104;8.074;2022-09-27T05:42:21;95417.72;;;7.27;100.00
74708;BME280;63360;50.104;8.074;2022-09-27T05:44:48;95436.16;;;7.26;100.00
74708;BME280;63360;50.104;8.074;2022-09-27T05:47:14;95426.66;;;7.30;100.00
74708;BME280;63360;50.104;8.074;2022-09-27T05:49:41;95426.56;;;7.26;100.00
74708;BME280;63360;50.104;8.074;2022-09-27T05:52:07;95437.34;;;7.28;100.00
74708;BME280;63360;50.104;8.074;2022-09-27T05:54:41;95427.22;;;7.23;100.00
74708;BME280;63360;50.104;8.074;2022-09-27T05:57:07;95441.88;;;7.31;100.00
74708;BME280;63360;50.104;8.074;2022-09-27T05:59:34;95436.69;;;7.19;100.00
74708;BME280;63360;50.104;8.074;2022-09-27T06:02:00;95435.94;;;7.19;100.00
74708;BME280;63360;50.104;8.074;2022-09-27T06:04:27;95443.28;;;7.29;100.00
74708;BME280;63360;50.104;8.074;2022-09-27T06:06:53;95445.19;;;7.32;100.00
74708;BME280;63360;50.104;8.074;2022-09-27T06:09:20;95431.72;;;7.26;100.00
74708;BME280;63360;50.104;8.074;2022-09-27T06:11:46;95448.66;;;7.24;100.00
74708;BME280;63360;50.104;8.074;2022-09-27T06:14:12;95449.63;;;7.19;100.00
74708;BME280;63360;50.104;8.074;2022-09-27T06:16:39;95446.91;;;7.16;100.00
74708;BME280;63360;50.104;8.074;2022-09-27T06:19:05;95453.31;;;7.18;100.00
74708;BME280;63360;50.104;8.074;2022-09-27T06:21:32;95456.41;;;7.24;100.00
74708;BME280;63360;50.104;8.074;2022-09-27T06:23:59;95450.59;;;7.15;100.00
74708;BME280;63360;50.104;8.074;2022-09-27T06:26:25;95472.91;;;7.19;100.00
74708;BME280;63360;50.104;8.074;2022-09-27T06:28:55;95480.34;;;7.21;100.00
74708;BME280;63360;50.104;8.074;2022-09-27T06:31:21;95484.34;;;7.18;100.00
74708;BME280;63360;50.104;8.074;2022-09-27T06:33:48;95478.06;;;7.07;100.00
74708;BME280;63360;50.104;8.074;2022-09-27T06:36:15;95482.78;;;7.05;100.00
74708;BME280;63360;50.104;8.074;2022-09-27T06:38:46;95486.69;;;7.11;100.00
74708;BME280;63360;50.104;8.074;2022-09-27T06:41:14;95490.78;;;7.12;100.00
74708;BME280;63360;50.104;8.074;2022-09-27T06:43:40;95500.50;;;7.15;100.00
74708;BME280;63360;50.104;8.074;2022-09-27T06:46:07;95496.59;;;7.09;100.00
74708;BME280;63360;50.104;8.074;2022-09-27T06:48:33;95502.97;;;7.12;100.00
74708;BME280;63360;50.104;8.074;2022-09-27T06:51:04;95512.97;;;7.13;100.00
74708;BME280;63360;50.104;8.074;2022-09-27T06:53:30;95509.09;;;7.19;100.00
74708;BME280;63360;50.104;8.074;2022-09-27T06:55:58;95527.53;;;7.18;100.00
74708;BME280;63360;50.104;8.074;2022-09-27T06:58:27;95528.72;;;7.20;100.00
74708;BME280;63360;50.104;8.074;2022-09-27T07:01:12;95539.06;;;7.20;100.00
74708;BME280;63360;50.104;8.074;2022-09-27T07:03:39;95532.91;;;7.13;100.00
74708;BME280;63360;50.104;8.074;2022-09-27T07:06:18;95532.16;;;7.12;100.00
74708;BME280;63360;50.104;8.074;2022-09-27T07:08:49;95530.41;;;7.16;100.00
74708;BME280;63360;50.104;8.074;2022-09-27T07:11:16;95550.25;;;7.24;100.00
74708;BME280;63360;50.104;8.074;2022-09-27T07:13:43;95551.91;;;7.29;100.00
74708;BME280;63360;50.104;8.074;2022-09-27T07:16:10;95551.91;;;7.29;100.00
74708;BME280;63360;50.104;8.074;2022-09-27T07:18:39;95546.38;;;7.18;100.00
74708;BME280;63360;50.104;8.074;2022-09-27T07:21:06;95547.47;;;7.17;100.00
74708;BME280;63360;50.104;8.074;2022-09-27T07:23:34;95547.75;;;7.16;100.00
74708;BME280;63360;50.104;8.074;2022-09-27T07:26:04;95549.06;;;7.22;100.00
74708;BME280;63360;50.104;8.074;2022-09-27T07:28:32;95559.97;;;7.27;100.00
74708;BME280;63360;50.104;8.074;2022-09-27T07:31:00;95570.31;;;7.27;100.00
74708;BME280;63360;50.104;8.074;2022-09-27T07:33:28;95565.34;;;7.34;100.00
74708;BME280;63360;50.104;8.074;2022-09-27T07:35:55;95556.31;;;7.28;100.00
74708;BME280;63360;50.104;8.074;2022-09-27T07:38:21;95568.34;;;7.24;100.00
74708;BME280;63360;50.104;8.074;2022-09-27T07:40:48;95575.81;;;7.26;100.00
74708;BME280;63360;50.104;8.074;2022-09-27T07:43:14;95575.81;;;7.38;100.00
74708;BME280;63360;50.104;8.074;2022-09-27T07:45:41;95575.06;;;7.50;100.00
74708;BME280;63360;50.104;8.074;2022-09-27T07:48:11;95571.59;;;7.46;100.00
74708;BME280;63360;50.104;8.074;2022-09-27T07:50:38;95576.47;;;7.59;100.00
74708;BME280;63360;50.104;8.074;2022-09-27T07:53:05;95565.16;;;7.52;100.00
74708;BME280;63360;50.104;8.074;2022-09-27T07:55:31;95576.69;;;7.54;100.00
74708;BME280;63360;50.104;8.074;2022-09-27T07:58:09;95567.41;;;7.53;100.00
74708;BME280;63360;50.104;8.074;2022-09-27T08:00:37;95583.25;;;7.76;100.00
74708;BME280;63360;50.104;8.074;2022-09-27T08:03:09;95573.13;;;7.71;100.00
74708;BME280;63360;50.104;8.074;2022-09-27T08:05:36;95585.63;;;7.81;100.00
74708;BME280;63360;50.104;8.074;2022-09-27T08:08:03;95584.88;;;7.80;100.00
74708;BME280;63360;50.104;8.074;2022-09-27T08:10:31;95581.84;;;7.78;100.00
74708;BME280;63360;50.104;8.074;2022-09-27T08:12:59;95584.66;;;7.85;100.00
74708;BME280;63360;50.104;8.074;2022-09-27T08:15:30;95576.56;;;7.87;100.00
74708;BME280;63360;50.104;8.074;2022-09-27T08:17:56;95579.56;;;8.01;100.00
74708;BME280;63360;50.104;8.074;2022-09-27T08:20:23;95583.00;;;8.05;100.00
74708;BME280;63360;50.104;8.074;2022-09-27T08:22:49;95584.97;;;8.08;100.00
74708;BME280;63360;50.104;8.074;2022-09-27T08:25:16;95586.97;;;8.15;100.00
74708;BME280;63360;50.104;8.074;2022-09-27T08:27:42;95597.88;;;8.32;100.00
74708;BME280;63360;50.104;8.074;2022-09-27T08:30:09;95581.91;;;8.18;100.00
74708;BME280;63360;50.104;8.074;2022-09-27T08:32:35;95604.88;;;8.20;100.00
74708;BME280;63360;50.104;8.074;2022-09-27T08:35:03;95599.38;;;8.21;100.00
74708;BME280;63360;50.104;8.074;2022-09-27T08:37:32;95598.84;;;8.28;100.00
74708;BME280;63360;50.104;8.074;2022-09-27T08:39:59;95613.28;;;8.41;100.00
74708;BME280;63360;50.104;8.074;2022-09-27T08:42:49;95611.91;;;8.31;100.00
74708;BME280;63360;50.104;8.074;2022-09-27T08:45:28;95615.69;;;8.34;100.00
74708;BME280;63360;50.104;8.074;2022-09-27T08:48:01;95605.97;;;8.43;100.00
74708;BME280;63360;50.104;8.074;2022-09-27T08:50:36;95619.16;;;8.38;100.00
74708;BME280;63360;50.104;8.074;2022-09-27T08:55:53;95611.50;;;8.29;100.00
74708;BME280;63360;50.104;8.074;2022-09-27T08:58:25;95624.56;;;8.33;100.00
74708;BME280;63360;50.104;8.074;2022-09-27T09:00:55;95610.84;;;8.32;100.00
74708;BME280;63360;50.104;8.074;2022-09-27T09:03:25;95617.72;;;8.40;100.00
74708;BME280;63360;50.104;8.074;2022-09-27T09:06:10;95613.91;;;8.50;100.00
74708;BME280;63360;50.104;8.074;2022-09-27T09:15:02;95613.19;;;8.37;100.00
74708;BME280;63360;50.104;8.074;2022-09-27T09:17:57;95609.00;;;8.33;100.00
74708;BME280;63360;50.104;8.074;2022-09-27T09:20:33;95623.97;;;8.51;100.00
74708;BME280;63360;50.104;8.074;2022-09-27T09:23:36;95614.56;;;8.59;100.00
74708;BME280;63360;50.104;8.074;2022-09-27T09:26:17;95625.28;;;8.73;100.00
74708;BME280;63360;50.104;8.074;2022-09-27T09:29:06;95621.28;;;8.76;100.00
74708;BME280;63360;50.104;8.074;2022-09-27T09:31:41;95613.22;;;8.93;100.00
74708;BME280;63360;50.104;8.074;2022-09-27T09:37:35;95617.66;;;8.92;100.00
74708;BME280;63360;50.104;8.074;2022-09-27T09:40:44;95613.47;;;8.88;100.00
74708;BME280;63360;50.104;8.074;2022-09-27T09:43:25;95610.72;;;8.96;100.00
74708;BME280;63360;50.104;8.074;2022-09-27T09:45:58;95607.53;;;8.87;100.00
74708;BME280;63360;50.104;8.074;2022-09-27T09:48:36;95610.72;;;8.96;100.00
74708;BME280;63360;50.104;8.074;2022-09-27T09:51:07;95616.19;;;9.07;100.00
74708;BME280;63360;50.104;8.074;2022-09-27T09:53:48;95620.31;;;9.24;100.00
74708;BME280;63360;50.104;8.074;2022-09-27T09:56:28;95610.16;;;9.19;98.55
74708;BME280;63360;50.104;8.074;2022-09-27T09:58:59;95622.72;;;9.17;100.00
74708;BME280;63360;50.104;8.074;2022-09-27T10:01:35;95619.63;;;9.11;100.00
74708;BME280;63360;50.104;8.074;2022-09-27T10:04:04;95612.75;;;9.03;96.98
74708;BME280;63360;50.104;8.074;2022-09-27T10:06:31;95607.28;;;8.92;100.00
74708;BME280;63360;50.104;8.074;2022-09-27T10:08:58;95605.19;;;8.98;99.39
74708;BME280;63360;50.104;8.074;2022-09-27T10:11:35;95613.41;;;9.00;96.13
74708;BME280;63360;50.104;8.074;2022-09-27T10:14:02;95614.19;;;9.16;97.69
74708;BME280;63360;50.104;8.074;2022-09-27T10:16:28;95606.22;;;9.09;98.34
74708;BME280;63360;50.104;8.074;2022-09-27T10:18:59;95613.88;;;9.18;100.00
74708;BME280;63360;50.104;8.074;2022-09-27T10:21:28;95601.72;;;9.22;100.00
74708;BME280;63360;50.104;8.074;2022-09-27T10:24:12;95597.03;;;9.27;96.83
74708;BME280;63360;50.104;8.074;2022-09-27T10:26:45;95605.09;;;9.53;95.89
74708;BME280;63360;50.104;8.074;2022-09-27T10:29:33;95611.03;;;9.69;91.70
74708;BME280;63360;50.104;8.074;2022-09-27T10:32:04;95606.44;;;9.63;89.20
74708;BME280;63360;50.104;8.074;2022-09-27T10:34:39;95603.66;;;9.56;88.97
74708;BME280;63360;50.104;8.074;2022-09-27T10:37:18;95591.09;;;9.42;93.49
74708;BME280;63360;50.104;8.074;2022-09-27T10:39:48;95594.56;;;9.46;90.96
74708;BME280;63360;50.104;8.074;2022-09-27T10:42:35;95598.06;;;9.38;95.34
74708;BME280;63360;50.104;8.074;2022-09-27T10:45:29;95595.97;;;9.44;92.33
74708;BME280;63360;50.104;8.074;2022-09-27T10:47:57;95593.47;;;9.47;91.90
74708;BME280;63360;50.104;8.074;2022-09-27T10:50:29;95594.41;;;9.39;91.54
74708;BME280;63360;50.104;8.074;2022-09-27T10:53:19;95588.94;;;9.29;91.29
74708;BME280;63360;50.104;8.074;2022-09-27T10:55:49;95590.13;;;9.31;92.57
74708;BME280;63360;50.104;8.074;2022-09-27T10:58:28;95584.75;;;9.40;90.34
74708;BME280;63360;50.104;8.074;2022-09-27T11:00:58;95582.09;;;9.36;87.55
74708;BME280;63360;50.104;8.074;2022-09-27T11:03:34;95586.41;;;9.32;92.06
74708;BME280;63360;50.104;8.074;2022-09-27T11:08:51;95580.91;;;9.34;94.93
74708;BME280;63360;50.104;8.074;2022-09-27T11:11:26;95557.88;;;9.17;93.75
74708;BME280;63360;50.104;8.074;2022-09-27T11:14:04;95577.97;;;9.35;95.95
74708;BME280;63360;50.104;8.074;2022-09-27T11:20:09;95577.81;;;9.44;97.79
74708;BME280;63360;50.104;8.074;2022-09-27T11:22:59;95585.25;;;9.45;93.74
74708;BME280;63360;50.104;8.074;2022-09-27T11:31:39;95574.69;;;9.54;96.14
74708;BME280;63360;50.104;8.074;2022-09-27T11:34:29;95571.25;;;9.81;89.56
74708;BME280;63360;50.104;8.074;2022-09-27T11:37:56;95561.44;;;9.74;91.74
74708;BME280;63360;50.104;8.074;2022-09-27T11:43:15;95557.94;;;9.67;90.08
74708;BME280;63360;50.104;8.074;2022-09-27T11:57:12;95544.41;;;9.93;85.77
74708;BME280;63360;50.104;8.074;2022-09-27T12:10:33;95551.34;;;10.04;87.21
74708;BME280;63360;50.104;8.074;2022-09-27T12:13:02;95551.88;;;9.94;87.33
74708;BME280;63360;50.104;8.074;2022-09-27T12:15:33;95541.22;;;9.99;83.40
74708;BME280;63360;50.104;8.074;2022-09-27T12:18:21;95554.56;;;9.98;84.15
74708;BME280;63360;50.104;8.074;2022-09-27T12:20:51;95550.09;;;9.98;87.91
74708;BME280;63360;50.104;8.074;2022-09-27T12:23:25;95546.66;;;9.94;87.45
74708;BME280;63360;50.104;8.074;2022-09-27T12:26:05;95544.06;;;9.94;84.50
74708;BME280;63360;50.104;8.074;2022-09-27T12:28:49;95553.38;;;9.95;84.90
74708;BME280;63360;50.104;8.074;2022-09-27T12:31:21;95546.34;;;9.80;86.03
74708;BME280;63360;50.104;8.074;2022-09-27T12:34:17;95549.31;;;9.79;90.63
74708;BME280;63360;50.104;8.074;2022-09-27T12:36:55;95548.13;;;9.76;87.24
74708;BME280;63360;50.104;8.074;2022-09-27T12:39:28;95552.00;;;9.66;90.86
74708;BME280;63360;50.104;8.074;2022-09-27T12:42:10;95548.91;;;9.61;92.76
74708;BME280;63360;50.104;8.074;2022-09-27T12:44:39;95558.47;;;9.57;92.08
74708;BME280;63360;50.104;8.074;2022-09-27T12:47:17;95549.41;;;9.66;91.70
74708;BME280;63360;50.104;8.074;2022-09-27T12:52:21;95540.13;;;9.65;89.86
74708;BME280;63360;50.104;8.074;2022-09-27T12:55:04;95532.25;;;9.62;88.69
74708;BME280;63360;50.104;8.074;2022-09-27T12:57:53;95552.84;;;9.70;90.77
74708;BME280;63360;50.104;8.074;2022-09-27T13:00:26;95547.56;;;9.67;93.16
74708;BME280;63360;50.104;8.074;2022-09-27T13:03:25;95534.97;;;9.69;91.79
74708;BME280;63360;50.104;8.074;2022-09-27T13:11:25;95551.72;;;9.71;91.83
74708;BME280;63360;50.104;8.074;2022-09-27T13:13:56;95547.06;;;9.61;94.16
74708;BME280;63360;50.104;8.074;2022-09-27T13:16:25;95538.50;;;9.61;92.85
74708;BME280;63360;50.104;8.074;2022-09-27T13:18:56;95542.97;;;9.60;94.54
74708;BME280;63360;50.104;8.074;2022-09-27T13:24:45;95538.09;;;9.59;98.14
74708;BME280;63360;50.104;8.074;2022-09-27T13:29:49;95536.28;;;9.44;99.36
74708;BME280;63360;50.104;8.074;2022-09-27T13:32:17;95540.13;;;9.50;100.00
74708;BME280;63360;50.104;8.074;2022-09-27T13:34:50;95546.56;;;9.56;99.55
74708;BME280;63360;50.104;8.074;2022-09-27T13:40:24;95531.91;;;9.48;96.03
74708;BME280;63360;50.104;8.074;2022-09-27T13:45:54;95517.94;;;9.52;96.10
74708;BME280;63360;50.104;8.074;2022-09-27T13:51:35;95516.56;;;9.58;98.20
74708;BME280;63360;50.104;8.074;2022-09-27T13:54:39;95525.09;;;9.74;97.67
74708;BME280;63360;50.104;8.074;2022-09-27T14:00:01;95513.00;;;9.82;90.59
74708;BME280;63360;50.104;8.074;2022-09-27T14:02:35;95518.56;;;9.81;91.74
74708;BME280;63360;50.104;8.074;2022-09-27T14:05:08;95519.22;;;9.77;93.09
74708;BME280;63360;50.104;8.074;2022-09-27T14:07:41;95540.31;;;9.92;91.92
74708;BME280;63360;50.104;8.074;2022-09-27T14:10:15;95531.28;;;9.86;91.01
74708;BME280;63360;50.104;8.074;2022-09-27T14:12:43;95543.63;;;9.73;94.81
74708;BME280;63360;50.104;8.074;2022-09-27T14:15:18;95547.72;;;9.58;100.00
74708;BME280;63360;50.104;8.074;2022-09-27T14:17:46;95524.00;;;9.25;100.00
74708;BME280;63360;50.104;8.074;2022-09-27T14:20:48;95529.84;;;8.91;100.00
74708;BME280;63360;50.104;8.074;2022-09-27T14:23:21;95526.94;;;8.65;100.00
74708;BME280;63360;50.104;8.074;2022-09-27T14:25:51;95531.00;;;8.50;100.00
74708;BME280;63360;50.104;8.074;2022-09-27T14:28:26;95543.13;;;8.46;100.00
74708;BME280;63360;50.104;8.074;2022-09-27T14:31:14;95551.09;;;8.41;100.00
74708;BME280;63360;50.104;8.074;2022-09-27T14:33:44;95541.66;;;8.33;100.00
74708;BME280;63360;50.104;8.074;2022-09-27T14:36:33;95530.28;;;8.25;100.00
74708;BME280;63360;50.104;8.074;2022-09-27T14:41:48;95523.00;;;8.15;100.00
74708;BME280;63360;50.104;8.074;2022-09-27T14:44:19;95526.22;;;8.24;100.00
74708;BME280;63360;50.104;8.074;2022-09-27T14:47:24;95530.97;;;8.34;100.00
74708;BME280;63360;50.104;8.074;2022-09-27T14:49:54;95526.44;;;8.31;100.00
74708;BME280;63360;50.104;8.074;2022-09-27T14:52:27;95529.13;;;8.35;100.00
74708;BME280;63360;50.104;8.074;2022-09-27T14:55:01;95530.31;;;8.37;100.00
74708;BME280;63360;50.104;8.074;2022-09-27T14:57:31;95517.34;;;8.37;100.00
74708;BME280;63360;50.104;8.074;2022-09-27T15:00:08;95538.06;;;8.37;100.00
74708;BME280;63360;50.104;8.074;2022-09-27T15:02:39;95536.25;;;8.38;100.00
74708;BME280;63360;50.104;8.074;2022-09-27T15:05:13;95540.00;;;8.40;100.00
74708;BME280;63360;50.104;8.074;2022-09-27T15:07:40;95541.84;;;8.40;100.00
74708;BME280;63360;50.104;8.074;2022-09-27T15:10:12;95549.72;;;8.43;100.00
74708;BME280;63360;50.104;8.074;2022-09-27T15:12:43;95548.63;;;8.44;100.00
74708;BME280;63360;50.104;8.074;2022-09-27T15:15:15;95553.00;;;8.56;100.00
74708;BME280;63360;50.104;8.074;2022-09-27T15:17:45;95565.38;;;8.63;100.00
74708;BME280;63360;50.104;8.074;2022-09-27T15:20:27;95550.72;;;8.54;100.00
74708;BME280;63360;50.104;8.074;2022-09-27T15:23:01;95557.41;;;8.28;100.00
74708;BME280;63360;50.104;8.074;2022-09-27T15:28:16;95548.81;;;8.00;100.00